Time;durP1;ratioP1;P1;durP2;ratioP2;P2;SDS_P1;SDS_P2;PMS_P1;PMS_P2;Temp;Humidity;BMP_temperature;BMP_pressure;BME280_temperature;BME280_humidity;BME280_pressure;Samples;Min_cycle;Max_cycle;Signal;HPM_P1;HPM_P2
2023/03/23 00:01:26;;;;;;;9.03;7.50;;;;;;;;;;5131351;27;20207;-81
2023/03/23 00:03:57;;;;;;;7.67;6.40;;;;;;;;;;5132035;27;20635;-80
2023/03/23 00:06:34;;;;;;;8.30;7.10;;;;;;;;;;5131375;27;20713;-82
2023/03/23 00:09:01;;;;;;;7.67;6.30;;;;;;;;;;5131187;28;20198;-80
2023/03/23 00:11:30;;;;;;;8.33;6.90;;;;;;;;;;5130932;28;20653;-80
2023/03/23 00:14:00;;;;;;;8.50;7.20;;;;;;;;;;5131745;28;20221;-80
2023/03/23 00:16:30;;;;;;;8.37;7.07;;;;;;;;;;5131227;28;20314;-80
2023/03/23 00:18:59;;;;;;;7.23;6.40;;;;;;;;;;5131469;28;20206;-80
2023/03/23 00:21:32;;;;;;;7.30;6.30;;;;;;;;;;5131396;28;20224;-81
2023/03/23 00:24:00;;;;;;;9.30;6.77;;;;;;;;;;5117654;28;20199;-80
2023/03/23 00:26:28;;;;;;;7.70;6.90;;;;;;;;;;5120071;28;20289;-79
2023/03/23 00:28:55;;;;;;;7.70;6.10;;;;;;;;;;5128916;28;20198;-82
2023/03/23 00:31:21;;;;;;;5.77;5.17;;;;;;;;;;5131707;28;20206;-79
2023/03/23 00:33:48;;;;;;;6.50;5.67;;;;;;;;;;5131173;28;20195;-79
2023/03/23 00:36:17;;;;;;;7.67;5.97;;;;;;;;;;5131146;28;21145;-80
2023/03/23 00:38:46;;;;;;;7.13;6.00;;;;;;;;;;5131364;28;20202;-80
2023/03/23 00:41:15;;;;;;;6.13;5.20;;;;;;;;;;5130558;28;20195;-80
2023/03/23 00:43:42;;;;;;;6.97;5.53;;;;;;;;;;5131745;28;20590;-79
2023/03/23 00:46:09;;;;;;;8.40;6.13;;;;;;;;;;5131454;28;20199;-80
2023/03/23 00:48:40;;;;;;;6.87;5.77;;;;;;;;;;5131406;28;20252;-80
2023/03/23 00:51:11;;;;;;;6.03;5.43;;;;;;;;;;5130607;28;20233;-80
2023/03/23 00:53:40;;;;;;;6.50;5.83;;;;;;;;;;5131249;28;20231;-79
2023/03/23 00:56:08;;;;;;;7.73;6.40;;;;;;;;;;5131102;28;20222;-79
2023/03/23 00:58:35;;;;;;;7.63;5.73;;;;;;;;;;5122481;28;20739;-79
2023/03/23 01:01:02;;;;;;;7.50;5.93;;;;;;;;;;5130487;27;20283;-78
2023/03/23 01:03:29;;;;;;;7.00;5.43;;;;;;;;;;5135186;27;20203;-79
2023/03/23 01:05:56;;;;;;;7.27;5.90;;;;;;;;;;5134403;27;20653;-79
2023/03/23 01:08:24;;;;;;;5.97;4.87;;;;;;;;;;5134842;27;20209;-79
2023/03/23 01:10:53;;;;;;;6.93;5.80;;;;;;;;;;5134147;27;21601;-79
2023/03/23 01:13:22;;;;;;;6.43;5.60;;;;;;;;;;5133254;27;20206;-79
2023/03/23 01:15:49;;;;;;;5.33;4.83;;;;;;;;;;5134586;27;20580;-79
2023/03/23 01:18:15;;;;;;;5.67;5.17;;;;;;;;;;5134783;27;20199;-79
2023/03/23 01:20:42;;;;;;;7.00;5.83;;;;;;;;;;5133989;27;20210;-79
2023/03/23 01:23:09;;;;;;;9.20;5.67;;;;;;;;;;5135065;27;20198;-79
2023/03/23 01:25:37;;;;;;;25.60;5.97;;;;;;;;;;5134219;27;20191;-79
2023/03/23 01:28:05;;;;;;;34.43;5.83;;;;;;;;;;5134134;27;20298;-79
2023/03/23 01:30:32;;;;;;;30.50;6.27;;;;;;;;;;5133944;27;20672;-79
2023/03/23 01:32:59;;;;;;;11.53;6.20;;;;;;;;;;5134642;27;20263;-80
2023/03/23 01:35:25;;;;;;;32.23;5.77;;;;;;;;;;5134375;27;20222;-79
2023/03/23 01:37:52;;;;;;;11.07;6.63;;;;;;;;;;5134093;27;20677;-79
2023/03/23 01:40:19;;;;;;;13.37;5.93;;;;;;;;;;5133770;27;20202;-80
2023/03/23 01:42:46;;;;;;;16.27;6.07;;;;;;;;;;5133991;27;20248;-80
2023/03/23 01:45:30;;;;;;;10.27;6.20;;;;;;;;;;5133747;27;20202;-80
2023/03/23 01:48:02;;;;;;;23.63;6.70;;;;;;;;;;5134280;27;20741;-80
2023/03/23 01:50:31;;;;;;;25.03;6.73;;;;;;;;;;5124368;27;20207;-80
2023/03/23 01:53:00;;;;;;;9.23;5.63;;;;;;;;;;5116980;27;20217;-80
2023/03/23 01:55:28;;;;;;;7.73;6.03;;;;;;;;;;5133645;27;20226;-80
2023/03/23 01:57:56;;;;;;;6.57;5.90;;;;;;;;;;5133881;27;20693;-80
2023/03/23 02:00:25;;;;;;;9.53;6.17;;;;;;;;;;5133991;27;20244;-80
2023/03/23 02:02:53;;;;;;;9.73;6.50;;;;;;;;;;5133566;27;20302;-81
2023/03/23 02:05:26;;;;;;;6.63;5.90;;;;;;;;;;5121817;27;20299;-80
2023/03/23 02:07:53;;;;;;;9.17;6.90;;;;;;;;;;5133234;27;20209;-80
2023/03/23 02:10:20;;;;;;;6.27;5.63;;;;;;;;;;5133256;27;20206;-80
2023/03/23 02:12:47;;;;;;;7.73;5.87;;;;;;;;;;5132594;27;20267;-80
2023/03/23 02:15:13;;;;;;;7.23;5.70;;;;;;;;;;5133328;27;20218;-80
2023/03/23 02:17:47;;;;;;;8.27;5.37;;;;;;;;;;5133380;27;20191;-79
2023/03/23 02:20:34;;;;;;;8.43;6.73;;;;;;;;;;5133796;27;20202;-80
2023/03/23 02:23:28;;;;;;;12.67;6.27;;;;;;;;;;5111552;27;20198;-82
2023/03/23 02:26:11;;;;;;;10.43;7.33;;;;;;;;;;5126660;27;20199;-79
2023/03/23 02:28:57;;;;;;;8.03;6.43;;;;;;;;;;5133361;27;20198;-80
2023/03/23 02:31:38;;;;;;;7.87;6.07;;;;;;;;;;5132794;27;20255;-80
2023/03/23 02:34:09;;;;;;;10.30;7.73;;;;;;;;;;5107465;27;20597;-80
2023/03/23 02:36:39;;;;;;;9.23;7.17;;;;;;;;;;5132790;27;20234;-80
2023/03/23 02:39:09;;;;;;;10.23;7.17;;;;;;;;;;5124449;27;20268;-80
2023/03/23 02:41:40;;;;;;;9.27;6.53;;;;;;;;;;5128633;27;20203;-80
2023/03/23 02:44:08;;;;;;;10.70;7.80;;;;;;;;;;5133388;27;20287;-80
2023/03/23 02:46:36;;;;;;;10.47;7.20;;;;;;;;;;5132714;27;20199;-80
2023/03/23 02:49:05;;;;;;;9.47;7.73;;;;;;;;;;5133466;27;20203;-82
2023/03/23 02:51:34;;;;;;;10.80;7.23;;;;;;;;;;5132122;27;20205;-80
2023/03/23 02:54:01;;;;;;;8.93;7.23;;;;;;;;;;5132929;27;20199;-80
2023/03/23 02:56:28;;;;;;;8.80;7.03;;;;;;;;;;5127822;27;20277;-80
2023/03/23 02:58:54;;;;;;;6.93;6.07;;;;;;;;;;5123769;27;20293;-80
2023/03/23 03:01:47;;;;;;;7.83;6.83;;;;;;;;;;5132550;27;20191;-80
2023/03/23 03:04:15;;;;;;;7.47;6.67;;;;;;;;;;5117342;27;20203;-80
2023/03/23 03:06:48;;;;;;;9.43;6.77;;;;;;;;;;5132321;27;20198;-80
2023/03/23 03:09:20;;;;;;;9.20;7.07;;;;;;;;;;5129305;27;20231;-80
2023/03/23 03:11:50;;;;;;;8.57;6.23;;;;;;;;;;5122884;27;20253;-80
2023/03/23 03:14:20;;;;;;;8.03;6.87;;;;;;;;;;5131914;27;20191;-80
2023/03/23 03:16:50;;;;;;;7.63;5.93;;;;;;;;;;5132334;27;20230;-80
2023/03/23 03:19:22;;;;;;;7.57;5.97;;;;;;;;;;5132211;27;20195;-80
2023/03/23 03:21:50;;;;;;;8.53;6.80;;;;;;;;;;5131346;27;20205;-80
2023/03/23 03:24:19;;;;;;;7.63;6.63;;;;;;;;;;5118355;27;20191;-80
2023/03/23 03:26:48;;;;;;;7.73;6.10;;;;;;;;;;5132215;27;20210;-81
2023/03/23 03:29:17;;;;;;;9.23;6.67;;;;;;;;;;5105735;27;20588;-80
2023/03/23 03:31:45;;;;;;;8.23;7.20;;;;;;;;;;5132392;27;20289;-80
2023/03/23 03:34:17;;;;;;;8.03;6.83;;;;;;;;;;5132160;27;20259;-80
2023/03/23 03:36:45;;;;;;;8.47;7.33;;;;;;;;;;5132015;27;20227;-80
2023/03/23 03:39:17;;;;;;;7.90;6.70;;;;;;;;;;5131950;27;20199;-80
2023/03/23 03:41:44;;;;;;;9.07;7.63;;;;;;;;;;5132078;27;20199;-80
2023/03/23 03:44:11;;;;;;;10.17;7.37;;;;;;;;;;5131971;27;20203;-80
2023/03/23 03:46:38;;;;;;;10.97;7.90;;;;;;;;;;5131771;27;20206;-80
2023/03/23 03:49:06;;;;;;;9.07;6.90;;;;;;;;;;5132061;27;20198;-80
2023/03/23 03:51:34;;;;;;;9.00;7.73;;;;;;;;;;5127554;27;20203;-80
2023/03/23 03:54:01;;;;;;;7.87;7.07;;;;;;;;;;5122852;27;20285;-80
2023/03/23 03:56:31;;;;;;;8.57;6.97;;;;;;;;;;5131181;27;20222;-80
2023/03/23 03:58:59;;;;;;;6.73;5.63;;;;;;;;;;5131519;27;20672;-80
2023/03/23 04:01:26;;;;;;;8.77;7.87;;;;;;;;;;5131161;27;20209;-80
2023/03/23 04:03:52;;;;;;;8.63;7.00;;;;;;;;;;5132123;27;20588;-80
2023/03/23 04:06:20;;;;;;;10.73;9.13;;;;;;;;;;5131128;27;20194;-80
2023/03/23 04:08:47;;;;;;;12.10;10.63;;;;;;;;;;5131504;27;20247;-80
2023/03/23 04:11:15;;;;;;;15.60;12.53;;;;;;;;;;5131048;28;20226;-80
2023/03/23 04:13:43;;;;;;;15.43;12.70;;;;;;;;;;5131698;28;20206;-80
2023/03/23 04:16:10;;;;;;;14.47;12.57;;;;;;;;;;5131428;28;20229;-80
2023/03/23 04:18:37;;;;;;;13.60;10.73;;;;;;;;;;5131154;28;20206;-82
2023/03/23 04:21:04;;;;;;;12.23;10.13;;;;;;;;;;5111195;28;20195;-81
2023/03/23 04:23:33;;;;;;;10.67;9.50;;;;;;;;;;5121644;28;20665;-81
2023/03/23 04:26:00;;;;;;;9.20;8.03;;;;;;;;;;5131380;28;20195;-80
2023/03/23 04:28:27;;;;;;;10.27;7.83;;;;;;;;;;5131406;28;20210;-81
2023/03/23 04:30:56;;;;;;;11.00;6.93;;;;;;;;;;5128164;28;20202;-80
2023/03/23 04:33:25;;;;;;;8.17;6.63;;;;;;;;;;5127968;27;20198;-81
2023/03/23 04:35:53;;;;;;;8.67;6.87;;;;;;;;;;5134803;27;20255;-81
2023/03/23 04:38:21;;;;;;;9.67;6.63;;;;;;;;;;5134332;27;20199;-82
2023/03/23 04:40:51;;;;;;;7.77;6.97;;;;;;;;;;5133920;27;20202;-81
2023/03/23 04:43:21;;;;;;;7.47;5.73;;;;;;;;;;5113589;27;20202;-82
2023/03/23 04:45:48;;;;;;;7.37;6.37;;;;;;;;;;5120405;27;20202;-81
2023/03/23 04:48:17;;;;;;;7.37;6.60;;;;;;;;;;5113370;27;20199;-81
2023/03/23 04:50:44;;;;;;;6.87;5.43;;;;;;;;;;5120289;27;20318;-81
2023/03/23 04:53:11;;;;;;;9.47;6.07;;;;;;;;;;5133045;27;20673;-83
2023/03/23 04:55:38;;;;;;;7.43;5.70;;;;;;;;;;5123033;27;20213;-81
2023/03/23 04:58:05;;;;;;;12.63;7.57;;;;;;;;;;5128384;27;20215;-81
2023/03/23 05:00:32;;;;;;;8.67;7.17;;;;;;;;;;5127020;27;20203;-82
2023/03/23 05:03:00;;;;;;;11.10;8.73;;;;;;;;;;5135208;27;20538;-81
2023/03/23 05:05:30;;;;;;;47.57;32.03;;;;;;;;;;5134791;27;20612;-81
2023/03/23 05:07:57;;;;;;;39.30;28.83;;;;;;;;;;5114484;28;20678;-82
2023/03/23 05:10:24;;;;;;;14.63;11.20;;;;;;;;;;5123716;27;20211;-82
2023/03/23 05:12:51;;;;;;;9.43;6.87;;;;;;;;;;5114759;27;20282;-82
2023/03/23 05:15:18;;;;;;;8.43;7.07;;;;;;;;;;5124794;27;20259;-82
2023/03/23 05:17:44;;;;;;;8.90;8.00;;;;;;;;;;5121739;27;20230;-82
2023/03/23 05:20:14;;;;;;;9.47;7.43;;;;;;;;;;5120713;27;20274;-82
2023/03/23 05:22:44;;;;;;;8.77;6.57;;;;;;;;;;5135104;27;20238;-85
2023/03/23 05:25:11;;;;;;;7.73;6.40;;;;;;;;;;5135002;27;20253;-82
2023/03/23 05:27:38;;;;;;;7.77;7.00;;;;;;;;;;5134494;27;20198;-82
2023/03/23 05:30:06;;;;;;;11.50;8.20;;;;;;;;;;5120527;27;20297;-82
2023/03/23 05:32:33;;;;;;;9.93;8.93;;;;;;;;;;5124662;27;20199;-82
2023/03/23 05:35:00;;;;;;;12.17;10.50;;;;;;;;;;5130818;27;20195;-82
2023/03/23 05:37:31;;;;;;;33.17;19.77;;;;;;;;;;5133403;27;20279;-82
2023/03/23 05:40:04;;;;;;;19.43;12.60;;;;;;;;;;5132569;27;20241;-83
2023/03/23 05:42:32;;;;;;;11.50;10.30;;;;;;;;;;5132465;27;20209;-82
2023/03/23 05:45:00;;;;;;;40.27;24.20;;;;;;;;;;5118469;27;20220;-82
2023/03/23 05:47:27;;;;;;;99.90;59.67;;;;;;;;;;5132247;27;20713;-82
2023/03/23 05:49:54;;;;;;;22.97;16.83;;;;;;;;;;5132550;27;20205;-82
2023/03/23 05:52:21;;;;;;;25.27;19.13;;;;;;;;;;5133438;27;20248;-82
2023/03/23 05:54:48;;;;;;;11.17;9.87;;;;;;;;;;5133987;27;20206;-82
2023/03/23 05:57:16;;;;;;;13.53;10.83;;;;;;;;;;5133573;27;20739;-82
2023/03/23 05:59:44;;;;;;;20.87;17.37;;;;;;;;;;5113877;28;20196;-83
2023/03/23 06:02:11;;;;;;;11.60;9.60;;;;;;;;;;5127900;27;20730;-82
2023/03/23 06:04:38;;;;;;;13.17;11.37;;;;;;;;;;5133678;27;20217;-82
2023/03/23 06:07:05;;;;;;;10.53;9.43;;;;;;;;;;5133365;27;20255;-82
2023/03/23 06:09:32;;;;;;;13.00;10.80;;;;;;;;;;5113374;28;20207;-81
2023/03/23 06:11:59;;;;;;;9.57;8.57;;;;;;;;;;5115541;27;20276;-82
2023/03/23 06:14:27;;;;;;;10.20;8.27;;;;;;;;;;5126980;27;20226;-82
2023/03/23 06:16:55;;;;;;;11.00;9.13;;;;;;;;;;5125925;27;20317;-82
2023/03/23 06:19:22;;;;;;;9.23;7.73;;;;;;;;;;5127375;27;20256;-82
2023/03/23 06:21:49;;;;;;;8.53;7.70;;;;;;;;;;5126818;27;20259;-82
2023/03/23 06:24:18;;;;;;;10.50;9.40;;;;;;;;;;5106961;27;20202;-81
2023/03/23 06:26:45;;;;;;;7.93;6.97;;;;;;;;;;5120169;27;20207;-82
2023/03/23 06:29:12;;;;;;;8.30;7.47;;;;;;;;;;5125815;27;20640;-82
2023/03/23 06:31:48;;;;;;;6.60;5.93;;;;;;;;;;5113542;27;20310;-82
2023/03/23 06:34:15;;;;;;;7.80;7.00;;;;;;;;;;5133519;27;20206;-86
2023/03/23 06:36:43;;;;;;;3.93;3.63;;;;;;;;;;5133280;27;20287;-82
2023/03/23 06:39:10;;;;;;;6.47;4.30;;;;;;;;;;5132753;27;20202;-81
2023/03/23 06:41:37;;;;;;;6.40;5.13;;;;;;;;;;5130075;27;20271;-82
2023/03/23 06:44:04;;;;;;;2.67;2.27;;;;;;;;;;5113034;28;20203;-82
2023/03/23 06:46:31;;;;;;;7.17;5.17;;;;;;;;;;5129600;27;20607;-82
2023/03/23 06:48:59;;;;;;;2.77;2.23;;;;;;;;;;5122561;27;20438;-82
2023/03/23 06:51:28;;;;;;;2.30;2.10;;;;;;;;;;5130189;27;20207;-82
2023/03/23 06:53:55;;;;;;;1.60;1.50;;;;;;;;;;5133301;27;20203;-82
2023/03/23 06:56:22;;;;;;;2.40;2.20;;;;;;;;;;5127363;27;20192;-82
2023/03/23 06:58:51;;;;;;;3.33;2.40;;;;;;;;;;5124135;27;20203;-82
2023/03/23 07:01:18;;;;;;;14.33;8.87;;;;;;;;;;5118606;27;20569;-82
2023/03/23 07:03:45;;;;;;;5.77;5.10;;;;;;;;;;5132585;27;20578;-82
2023/03/23 07:06:13;;;;;;;2.07;1.87;;;;;;;;;;5127319;27;20207;-82
2023/03/23 07:08:40;;;;;;;2.00;1.80;;;;;;;;;;5124857;27;20203;-81
2023/03/23 07:11:07;;;;;;;2.63;2.00;;;;;;;;;;5118178;27;20374;-82
2023/03/23 07:13:34;;;;;;;1.90;1.80;;;;;;;;;;5132190;27;20251;-82
2023/03/23 07:16:01;;;;;;;2.03;1.87;;;;;;;;;;5118967;27;20583;-82
2023/03/23 07:18:28;;;;;;;2.27;2.07;;;;;;;;;;5119599;27;20252;-82
2023/03/23 07:20:55;;;;;;;2.83;2.40;;;;;;;;;;5130934;27;20207;-82
2023/03/23 07:23:23;;;;;;;3.63;2.40;;;;;;;;;;5132842;27;20229;-82
2023/03/23 07:25:51;;;;;;;4.70;2.40;;;;;;;;;;5118702;27;20276;-82
2023/03/23 07:28:18;;;;;;;2.60;2.17;;;;;;;;;;5118437;27;20203;-83
2023/03/23 07:30:45;;;;;;;2.10;1.90;;;;;;;;;;5132201;27;20198;-82
2023/03/23 07:33:12;;;;;;;2.63;1.90;;;;;;;;;;5131786;27;20202;-83
2023/03/23 07:35:39;;;;;;;3.43;1.80;;;;;;;;;;5132023;27;20285;-82
2023/03/23 07:38:07;;;;;;;2.00;1.80;;;;;;;;;;5132195;27;20218;-82
2023/03/23 07:40:35;;;;;;;2.03;1.90;;;;;;;;;;5124591;27;20203;-83
2023/03/23 07:43:03;;;;;;;8.10;3.00;;;;;;;;;;5125220;27;20267;-83
2023/03/23 07:45:31;;;;;;;3.63;2.40;;;;;;;;;;5119820;27;20203;-82
2023/03/23 07:47:58;;;;;;;3.93;3.17;;;;;;;;;;5118536;27;20199;-82
2023/03/23 07:50:25;;;;;;;2.70;2.40;;;;;;;;;;5131716;27;20626;-82
2023/03/23 07:52:52;;;;;;;2.43;2.23;;;;;;;;;;5129471;27;20202;-83
2023/03/23 07:55:19;;;;;;;2.30;2.10;;;;;;;;;;5120462;27;20207;-85
2023/03/23 07:57:48;;;;;;;2.00;1.90;;;;;;;;;;5129714;27;20225;-82
2023/03/23 08:00:18;;;;;;;2.27;2.07;;;;;;;;;;5121427;27;20186;-83
2023/03/23 08:02:45;;;;;;;4.50;2.40;;;;;;;;;;5128981;27;20226;-82
2023/03/23 08:05:13;;;;;;;2.53;2.33;;;;;;;;;;5122014;27;20207;-83
2023/03/23 08:07:40;;;;;;;2.10;1.90;;;;;;;;;;5131281;27;20198;-82
2023/03/23 08:10:10;;;;;;;2.17;2.07;;;;;;;;;;5131590;27;20756;-82
2023/03/23 08:12:37;;;;;;;2.70;2.50;;;;;;;;;;5116819;28;20262;-82
2023/03/23 08:15:07;;;;;;;2.00;1.90;;;;;;;;;;5131814;28;20226;-82
2023/03/23 08:17:34;;;;;;;2.17;2.03;;;;;;;;;;5126812;28;20223;-83
2023/03/23 08:20:08;;;;;;;2.27;2.13;;;;;;;;;;5110982;28;20648;-83
2023/03/23 08:22:35;;;;;;;3.50;2.93;;;;;;;;;;5125224;28;20304;-83
2023/03/23 08:25:03;;;;;;;2.53;2.33;;;;;;;;;;5124488;28;20242;-83
2023/03/23 08:27:30;;;;;;;3.40;3.10;;;;;;;;;;5117164;28;20282;-83
2023/03/23 08:29:57;;;;;;;2.90;2.67;;;;;;;;;;5131756;28;20195;-83
2023/03/23 08:32:25;;;;;;;2.10;2.00;;;;;;;;;;5123984;28;20751;-83
2023/03/23 08:34:52;;;;;;;3.53;3.20;;;;;;;;;;5124684;28;20199;-83
2023/03/23 08:37:19;;;;;;;2.90;2.70;;;;;;;;;;5118641;28;20233;-83
2023/03/23 08:39:45;;;;;;;3.33;3.03;;;;;;;;;;5130220;28;20593;-82
2023/03/23 08:42:13;;;;;;;4.13;2.83;;;;;;;;;;5118920;28;20215;-83
2023/03/23 08:44:40;;;;;;;3.13;2.93;;;;;;;;;;5116391;28;20592;-83
2023/03/23 08:47:07;;;;;;;2.80;2.57;;;;;;;;;;5120274;28;20207;-83
2023/03/23 08:49:36;;;;;;;4.70;3.87;;;;;;;;;;5117767;28;20196;-82
2023/03/23 08:52:03;;;;;;;3.30;3.10;;;;;;;;;;5131495;28;20202;-83
2023/03/23 08:54:31;;;;;;;3.47;3.00;;;;;;;;;;5117897;28;20207;-82
2023/03/23 08:57:00;;;;;;;3.20;2.90;;;;;;;;;;5131326;28;20194;-82
2023/03/23 08:59:27;;;;;;;3.33;3.03;;;;;;;;;;5113303;28;20260;-82
2023/03/23 09:01:54;;;;;;;3.90;3.17;;;;;;;;;;5111054;28;20204;-82
2023/03/23 09:04:21;;;;;;;3.40;3.10;;;;;;;;;;5111271;28;20277;-81
2023/03/23 09:06:49;;;;;;;4.20;3.80;;;;;;;;;;5120451;28;20202;-82
2023/03/23 09:09:17;;;;;;;3.20;2.90;;;;;;;;;;5131212;28;20196;-82
2023/03/23 09:11:44;;;;;;;3.30;3.00;;;;;;;;;;5120969;28;20232;-82
2023/03/23 09:14:12;;;;;;;4.70;4.20;;;;;;;;;;5128381;28;20206;-82
2023/03/23 09:16:39;;;;;;;3.73;3.43;;;;;;;;;;5119980;28;20199;-82
2023/03/23 09:19:08;;;;;;;4.33;3.70;;;;;;;;;;5115245;27;20218;-82
2023/03/23 09:21:37;;;;;;;3.70;3.40;;;;;;;;;;5134164;27;20206;-81
2023/03/23 09:24:06;;;;;;;4.77;4.30;;;;;;;;;;5116238;27;20202;-82
2023/03/23 09:26:33;;;;;;;3.90;3.60;;;;;;;;;;5127111;27;20263;-82
2023/03/23 09:28:59;;;;;;;3.87;3.57;;;;;;;;;;5120730;27;20712;-82
2023/03/23 09:31:27;;;;;;;4.23;3.83;;;;;;;;;;5134170;27;20202;-82
2023/03/23 09:33:55;;;;;;;4.63;4.20;;;;;;;;;;5134518;27;20237;-82
2023/03/23 09:36:22;;;;;;;5.63;4.77;;;;;;;;;;5121297;27;20286;-82
2023/03/23 09:38:49;;;;;;;5.30;4.80;;;;;;;;;;5120707;27;20226;-82
2023/03/23 09:41:38;;;;;;;7.10;5.13;;;;;;;;;;5133820;27;20202;-82
2023/03/23 09:44:10;;;;;;;6.97;5.73;;;;;;;;;;5113316;27;20253;-82
2023/03/23 09:46:46;;;;;;;6.87;5.70;;;;;;;;;;5116766;27;20192;-82
2023/03/23 09:49:16;;;;;;;7.77;4.80;;;;;;;;;;5113882;28;20263;-82
2023/03/23 09:51:46;;;;;;;7.63;5.40;;;;;;;;;;5126991;27;20198;-82
2023/03/23 09:54:20;;;;;;;5.27;4.77;;;;;;;;;;5113894;28;20196;-82
2023/03/23 09:56:49;;;;;;;5.43;4.90;;;;;;;;;;5100757;28;20202;-82
2023/03/23 09:59:20;;;;;;;7.07;5.43;;;;;;;;;;5128172;27;20283;-82
2023/03/23 10:01:50;;;;;;;6.13;5.40;;;;;;;;;;5134348;27;20195;-82
2023/03/23 10:04:31;;;;;;;7.63;6.20;;;;;;;;;;5131870;27;20209;-82
2023/03/23 10:07:00;;;;;;;9.90;5.97;;;;;;;;;;5124894;27;20597;-82
2023/03/23 10:09:28;;;;;;;9.57;6.87;;;;;;;;;;5115516;27;20188;-83
2023/03/23 10:12:02;;;;;;;7.93;7.13;;;;;;;;;;5112883;28;20230;-82
2023/03/23 10:14:50;;;;;;;8.30;6.37;;;;;;;;;;5133224;27;20198;-82
2023/03/23 10:17:22;;;;;;;8.33;6.67;;;;;;;;;;5133888;27;20206;-82
2023/03/23 10:19:54;;;;;;;8.37;7.17;;;;;;;;;;5133751;27;20210;-82
2023/03/23 10:22:28;;;;;;;7.00;6.00;;;;;;;;;;5129459;27;20204;-82
2023/03/23 10:25:02;;;;;;;10.20;7.13;;;;;;;;;;5125831;27;20271;-83
2023/03/23 10:27:35;;;;;;;6.90;6.20;;;;;;;;;;5126747;27;20204;-82
2023/03/23 10:30:13;;;;;;;8.87;6.47;;;;;;;;;;5126738;27;20237;-82
2023/03/23 10:32:49;;;;;;;8.17;6.43;;;;;;;;;;5121643;27;20745;-82
2023/03/23 10:35:20;;;;;;;7.87;7.07;;;;;;;;;;5129396;27;20202;-81
2023/03/23 10:37:50;;;;;;;7.67;6.47;;;;;;;;;;5112632;28;20199;-82
2023/03/23 10:40:19;;;;;;;7.47;6.57;;;;;;;;;;5118000;27;20199;-82
2023/03/23 10:42:47;;;;;;;10.80;8.07;;;;;;;;;;5133233;27;20194;-81
2023/03/23 10:45:19;;;;;;;7.70;6.90;;;;;;;;;;5113574;27;20753;-82
2023/03/23 10:47:51;;;;;;;7.27;6.23;;;;;;;;;;5125670;27;20291;-81
2023/03/23 10:50:23;;;;;;;8.27;6.83;;;;;;;;;;5125716;27;20196;-82
2023/03/23 10:52:51;;;;;;;8.60;6.43;;;;;;;;;;5113489;27;20276;-82
2023/03/23 10:55:20;;;;;;;8.37;7.10;;;;;;;;;;5133035;27;20209;-82
2023/03/23 10:58:00;;;;;;;9.07;7.33;;;;;;;;;;5116936;27;20697;-82
2023/03/23 11:00:28;;;;;;;8.63;7.70;;;;;;;;;;5122966;27;20202;-82
2023/03/23 11:03:01;;;;;;;9.90;7.30;;;;;;;;;;5118751;27;20734;-84
2023/03/23 11:05:33;;;;;;;7.53;6.83;;;;;;;;;;5132244;27;20214;-82
2023/03/23 11:08:01;;;;;;;9.47;7.00;;;;;;;;;;5132748;27;20207;-82
2023/03/23 11:10:34;;;;;;;8.70;6.60;;;;;;;;;;5119294;27;20670;-82
2023/03/23 11:13:04;;;;;;;8.03;7.23;;;;;;;;;;5106683;27;20293;-83
2023/03/23 11:15:32;;;;;;;7.30;6.60;;;;;;;;;;5117725;27;20207;-82
2023/03/23 11:18:01;;;;;;;8.37;6.47;;;;;;;;;;5120699;27;20263;-83
2023/03/23 11:20:29;;;;;;;7.93;6.70;;;;;;;;;;5132554;27;20199;-83
2023/03/23 11:22:56;;;;;;;9.23;7.20;;;;;;;;;;5132907;27;20206;-83
2023/03/23 11:25:23;;;;;;;8.73;6.80;;;;;;;;;;5129331;27;20290;-82
2023/03/23 11:27:50;;;;;;;7.97;6.70;;;;;;;;;;5122441;27;20209;-83
2023/03/23 11:30:26;;;;;;;9.27;6.57;;;;;;;;;;5132447;27;20198;-82
2023/03/23 11:32:54;;;;;;;8.20;7.17;;;;;;;;;;5120743;27;20289;-82
2023/03/23 11:35:22;;;;;;;6.93;6.23;;;;;;;;;;5125983;27;20210;-84
2023/03/23 11:37:52;;;;;;;7.00;5.83;;;;;;;;;;5124189;27;20216;-82
2023/03/23 11:40:21;;;;;;;6.87;6.17;;;;;;;;;;5132109;27;20198;-83
2023/03/23 11:42:51;;;;;;;12.60;6.90;;;;;;;;;;5131983;27;20199;-82
2023/03/23 11:45:22;;;;;;;7.33;6.57;;;;;;;;;;5111434;28;20726;-82
2023/03/23 11:47:59;;;;;;;6.87;6.20;;;;;;;;;;5111807;28;20203;-82
2023/03/23 11:50:29;;;;;;;8.20;7.23;;;;;;;;;;5121344;27;20742;-82
2023/03/23 11:53:03;;;;;;;8.10;6.47;;;;;;;;;;5131475;27;20289;-83
2023/03/23 11:55:35;;;;;;;7.80;6.27;;;;;;;;;;5131877;27;20290;-83
2023/03/23 11:58:08;;;;;;;7.33;6.63;;;;;;;;;;5117898;27;20209;-82
2023/03/23 12:00:36;;;;;;;7.77;5.67;;;;;;;;;;5132073;27;20198;-82
2023/03/23 12:03:33;;;;;;;6.47;5.80;;;;;;;;;;5105438;27;20236;-82
2023/03/23 12:06:03;;;;;;;7.10;5.70;;;;;;;;;;5117947;27;20218;-82
2023/03/23 12:08:44;;;;;;;9.67;6.30;;;;;;;;;;5119782;27;20214;-82
2023/03/23 12:11:17;;;;;;;7.47;5.97;;;;;;;;;;5118500;28;20228;-82
2023/03/23 12:13:55;;;;;;;7.27;6.03;;;;;;;;;;5131820;28;20206;-81
2023/03/23 12:16:31;;;;;;;7.00;6.20;;;;;;;;;;5131440;28;20198;-82
2023/03/23 12:19:04;;;;;;;6.00;5.40;;;;;;;;;;5131128;28;20226;-82
2023/03/23 12:21:38;;;;;;;7.30;5.40;;;;;;;;;;5131426;28;20213;-82
2023/03/23 12:24:11;;;;;;;7.87;6.20;;;;;;;;;;5113199;28;20605;-82
2023/03/23 12:26:41;;;;;;;6.90;5.87;;;;;;;;;;5123827;28;20206;-82
2023/03/23 12:29:32;;;;;;;8.00;6.53;;;;;;;;;;5104600;28;20202;-82
2023/03/23 12:32:15;;;;;;;7.17;6.47;;;;;;;;;;5127376;28;20202;-83
2023/03/23 12:34:48;;;;;;;8.13;6.60;;;;;;;;;;5123624;28;20589;-82
2023/03/23 12:37:26;;;;;;;6.53;5.83;;;;;;;;;;5104857;28;20235;-82
2023/03/23 12:40:34;;;;;;;5.83;5.30;;;;;;;;;;5129621;28;20226;-82
2023/03/23 12:43:06;;;;;;;6.80;6.10;;;;;;;;;;5091869;28;20213;-82
2023/03/23 12:45:56;;;;;;;5.73;5.23;;;;;;;;;;5131404;28;20213;-82
2023/03/23 12:48:25;;;;;;;5.90;5.33;;;;;;;;;;5099798;28;20244;-82
2023/03/23 12:51:09;;;;;;;5.83;5.17;;;;;;;;;;5119329;28;20275;-82
2023/03/23 12:53:46;;;;;;;6.23;5.57;;;;;;;;;;5098577;28;20312;-82
2023/03/23 12:56:16;;;;;;;5.17;4.67;;;;;;;;;;5116386;27;20641;-82
2023/03/23 12:58:46;;;;;;;6.13;5.03;;;;;;;;;;5135335;27;20326;-82
2023/03/23 13:01:18;;;;;;;6.50;5.43;;;;;;;;;;5135134;27;20222;-81
2023/03/23 13:03:51;;;;;;;6.47;5.87;;;;;;;;;;5123166;27;20234;-82
2023/03/23 13:06:22;;;;;;;7.97;7.17;;;;;;;;;;5120041;27;20194;-81
2023/03/23 13:08:53;;;;;;;8.10;6.17;;;;;;;;;;5122079;27;20229;-82
2023/03/23 13:11:26;;;;;;;5.67;5.10;;;;;;;;;;5107426;27;20232;-82
2023/03/23 13:13:56;;;;;;;7.40;5.30;;;;;;;;;;5121296;27;20205;-82
2023/03/23 13:16:29;;;;;;;6.20;4.60;;;;;;;;;;5135350;27;20208;-82
2023/03/23 13:19:05;;;;;;;7.23;4.57;;;;;;;;;;5132034;27;20235;-82
2023/03/23 13:21:32;;;;;;;4.70;4.30;;;;;;;;;;5124579;27;20318;-83
2023/03/23 13:24:03;;;;;;;13.13;8.00;;;;;;;;;;5120979;27;20199;-80
2023/03/23 13:26:30;;;;;;;10.30;7.47;;;;;;;;;;5134631;27;20667;-80
2023/03/23 13:29:01;;;;;;;11.57;6.10;;;;;;;;;;5134558;27;20199;-84
2023/03/23 13:31:33;;;;;;;6.03;5.33;;;;;;;;;;5134347;27;20194;-81
2023/03/23 13:34:04;;;;;;;10.77;5.70;;;;;;;;;;5134205;27;20304;-81
2023/03/23 13:36:34;;;;;;;4.83;3.83;;;;;;;;;;5134114;27;20207;-81
2023/03/23 13:39:03;;;;;;;6.57;5.07;;;;;;;;;;5134202;27;20660;-83
2023/03/23 13:41:31;;;;;;;5.93;5.40;;;;;;;;;;5134003;27;20708;-81
2023/03/23 13:44:18;;;;;;;6.00;5.40;;;;;;;;;;5125786;27;20690;-84
2023/03/23 13:46:55;;;;;;;5.47;4.80;;;;;;;;;;5131713;27;20213;-82
2023/03/23 13:49:27;;;;;;;5.13;4.67;;;;;;;;;;5134175;27;20241;-82
2023/03/23 13:52:37;;;;;;;5.33;4.60;;;;;;;;;;5107220;27;20205;-82
2023/03/23 13:55:20;;;;;;;4.23;3.83;;;;;;;;;;5134347;27;20634;-82
2023/03/23 13:57:53;;;;;;;4.50;4.10;;;;;;;;;;5133491;27;20208;-82
2023/03/23 14:00:36;;;;;;;4.57;4.10;;;;;;;;;;5134009;27;20229;-82
2023/03/23 14:03:04;;;;;;;6.47;5.57;;;;;;;;;;5133788;27;20202;-83
2023/03/23 14:05:36;;;;;;;5.50;4.73;;;;;;;;;;5133300;27;20260;-83
2023/03/23 14:08:10;;;;;;;4.40;3.87;;;;;;;;;;5133723;27;20194;-82
2023/03/23 14:10:38;;;;;;;4.13;3.73;;;;;;;;;;5131911;27;20684;-82
2023/03/23 14:13:07;;;;;;;6.30;4.43;;;;;;;;;;5092715;28;20785;-82
2023/03/23 14:15:43;;;;;;;4.33;3.93;;;;;;;;;;5092330;28;20212;-82
2023/03/23 14:18:15;;;;;;;5.07;4.60;;;;;;;;;;5083144;28;20584;-80
2023/03/23 14:20:44;;;;;;;6.40;4.73;;;;;;;;;;5072438;28;20310;-80
2023/03/23 14:23:19;;;;;;;4.90;4.40;;;;;;;;;;5083802;28;20591;-81
2023/03/23 14:25:55;;;;;;;7.07;4.17;;;;;;;;;;5091686;28;20207;-80
2023/03/23 14:28:22;;;;;;;5.60;4.47;;;;;;;;;;5092163;28;20262;-81
2023/03/23 14:30:53;;;;;;;4.97;4.30;;;;;;;;;;5092271;28;20208;-80
2023/03/23 14:33:20;;;;;;;4.37;3.97;;;;;;;;;;5077631;28;20213;-81
2023/03/23 14:35:49;;;;;;;4.13;3.83;;;;;;;;;;5071899;28;20217;-81
2023/03/23 14:38:19;;;;;;;4.50;4.10;;;;;;;;;;5086095;28;20196;-81
2023/03/23 14:40:46;;;;;;;7.30;6.40;;;;;;;;;;5080372;28;20321;-81
2023/03/23 14:43:16;;;;;;;6.57;4.90;;;;;;;;;;5092143;28;20200;-81
2023/03/23 14:45:43;;;;;;;5.43;4.83;;;;;;;;;;5082739;28;20218;-80
2023/03/23 14:48:14;;;;;;;5.67;4.70;;;;;;;;;;5074744;28;20204;-80
2023/03/23 14:50:42;;;;;;;5.03;4.40;;;;;;;;;;5081336;28;20207;-81
2023/03/23 14:53:15;;;;;;;4.70;4.30;;;;;;;;;;5085177;28;20214;-80
2023/03/23 14:55:43;;;;;;;5.03;4.53;;;;;;;;;;5083230;28;20273;-81
2023/03/23 14:58:14;;;;;;;5.20;4.27;;;;;;;;;;5092029;28;20219;-81